Time;durP1;ratioP1;P1;durP2;ratioP2;P2;SDS_P1;SDS_P2;PMS_P1;PMS_P2;Temp;Humidity;BMP_temperature;BMP_pressure;BME280_temperature;BME280_humidity;BME280_pressure;Samples;Min_cycle;Max_cycle;Signal;HPM_P1;HPM_P2
2021/10/20 00:01:21;;;;;;;8.00;5.27;;;12.60;73.60;;;;;;5000772;28;20029;-82
2021/10/20 00:03:47;;;;;;;14.03;5.27;;;12.70;73.70;;;;;;5008730;28;20033;-82
2021/10/20 00:06:13;;;;;;;8.77;5.63;;;12.70;73.80;;;;;;5006208;28;20022;-82
2021/10/20 00:08:39;;;;;;;9.40;5.67;;;12.60;73.90;;;;;;5008311;28;20041;-81
2021/10/20 00:11:05;;;;;;;8.60;5.43;;;12.60;74.00;;;;;;5026814;28;20484;-81
2021/10/20 00:13:30;;;;;;;15.00;6.13;;;12.60;73.90;;;;;;5010608;28;20083;-81
2021/10/20 00:15:56;;;;;;;7.43;5.07;;;12.60;74.00;;;;;;5006446;28;20563;-82
2021/10/20 00:18:22;;;;;;;11.77;6.00;;;12.60;74.20;;;;;;5028277;28;20042;-82
2021/10/20 00:20:48;;;;;;;11.03;5.30;;;12.60;74.10;;;;;;5010153;28;20026;-82
2021/10/20 00:23:14;;;;;;;12.30;5.40;;;12.60;74.00;;;;;;5021409;28;20384;-82
2021/10/20 00:25:40;;;;;;;10.70;5.63;;;12.50;74.30;;;;;;5006924;28;20036;-81
2021/10/20 00:28:07;;;;;;;9.20;4.80;;;12.40;74.50;;;;;;5024403;28;20045;-81
2021/10/20 00:30:34;;;;;;;8.63;5.00;;;12.40;74.60;;;;;;5007846;28;20037;-82
2021/10/20 00:33:00;;;;;;;11.93;5.03;;;12.40;74.80;;;;;;5025182;28;20041;-81
2021/10/20 00:35:26;;;;;;;7.50;4.87;;;12.30;74.80;;;;;;5003410;28;20041;-82
2021/10/20 00:37:53;;;;;;;11.00;5.27;;;12.40;75.00;;;;;;5005497;28;20025;-82
2021/10/20 00:40:19;;;;;;;5.00;3.27;;;12.30;75.20;;;;;;5010878;28;20549;-81
2021/10/20 00:42:45;;;;;;;6.23;3.47;;;12.40;75.10;;;;;;5006470;28;20029;-82
2021/10/20 00:45:12;;;;;;;6.33;3.10;;;12.30;75.00;;;;;;5025224;28;20086;-82
2021/10/20 00:47:39;;;;;;;4.97;2.97;;;12.30;75.10;;;;;;5027278;28;20345;-82
2021/10/20 00:50:07;;;;;;;6.03;3.70;;;12.20;74.90;;;;;;5012641;28;20033;-82
2021/10/20 00:52:33;;;;;;;4.57;2.20;;;12.20;75.20;;;;;;5027589;28;20029;-82
2021/10/20 00:55:01;;;;;;;10.27;3.07;;;12.20;75.20;;;;;;5025421;28;20040;-82
2021/10/20 00:57:30;;;;;;;8.53;3.20;;;12.20;75.20;;;;;;5004544;28;20033;-81
2021/10/20 00:59:58;;;;;;;7.80;3.00;;;12.10;75.10;;;;;;4999640;28;20029;-82
2021/10/20 01:02:24;;;;;;;6.83;3.43;;;12.10;74.90;;;;;;5025657;28;20100;-82
2021/10/20 01:04:50;;;;;;;7.77;4.80;;;12.10;75.20;;;;;;5029655;28;20109;-82
2021/10/20 01:07:17;;;;;;;7.97;3.83;;;12.00;75.40;;;;;;5026556;28;20037;-82
2021/10/20 01:09:44;;;;;;;6.07;2.20;;;12.00;75.70;;;;;;5008714;28;20029;-82
2021/10/20 01:12:10;;;;;;;4.53;2.30;;;12.10;75.60;;;;;;5010262;28;20026;-82
2021/10/20 01:14:36;;;;;;;10.23;4.50;;;12.00;75.30;;;;;;5011833;28;20030;-82
2021/10/20 01:17:02;;;;;;;9.20;5.40;;;11.90;75.40;;;;;;5007620;28;20042;-82
2021/10/20 01:19:28;;;;;;;9.93;4.10;;;11.90;75.70;;;;;;5010651;28;20053;-82
2021/10/20 01:21:55;;;;;;;8.17;3.77;;;11.90;75.80;;;;;;5027020;28;20017;-81
2021/10/20 01:24:22;;;;;;;6.63;3.00;;;11.90;75.80;;;;;;5026581;28;20026;-82
2021/10/20 01:26:52;;;;;;;5.70;3.40;;;11.90;75.80;;;;;;5027506;28;20025;-82
2021/10/20 01:29:19;;;;;;;4.97;2.83;;;11.80;75.90;;;;;;5007414;28;20025;-82
2021/10/20 01:31:50;;;;;;;6.47;2.80;;;11.80;75.90;;;;;;5002029;28;20128;-81
2021/10/20 01:34:16;;;;;;;9.57;4.07;;;11.80;75.80;;;;;;5001350;28;20026;-82
2021/10/20 01:36:43;;;;;;;4.77;3.47;;;11.80;76.10;;;;;;5008159;28;20041;-82
2021/10/20 01:39:09;;;;;;;6.80;3.97;;;11.80;76.10;;;;;;5025546;28;20377;-82
2021/10/20 01:41:36;;;;;;;8.13;4.23;;;11.80;76.20;;;;;;5011587;28;20075;-82
2021/10/20 01:44:03;;;;;;;5.30;3.50;;;11.90;76.40;;;;;;5003247;28;20034;-83
2021/10/20 01:46:29;;;;;;;4.77;3.00;;;11.80;76.40;;;;;;5023911;28;20072;-83
2021/10/20 01:48:55;;;;;;;4.27;2.77;;;11.80;76.00;;;;;;5005879;28;20439;-82
2021/10/20 01:51:21;;;;;;;4.10;3.07;;;11.80;76.00;;;;;;5002863;28;20160;-83
2021/10/20 01:53:47;;;;;;;5.73;2.47;;;11.90;76.10;;;;;;5003268;28;20183;-83
2021/10/20 01:56:13;;;;;;;4.93;2.90;;;11.90;76.00;;;;;;5002824;28;20516;-83
2021/10/20 01:58:40;;;;;;;5.60;2.80;;;11.80;75.80;;;;;;4995633;28;20374;-83
2021/10/20 02:01:09;;;;;;;4.57;2.67;;;11.80;75.80;;;;;;5000354;28;20037;-83
2021/10/20 02:03:36;;;;;;;9.00;3.20;;;11.80;76.20;;;;;;5017943;28;20021;-83
2021/10/20 02:06:08;;;;;;;9.17;2.90;;;11.70;76.00;;;;;;5023764;28;20026;-83
2021/10/20 02:08:34;;;;;;;4.90;2.63;;;11.70;76.00;;;;;;5023358;28;20021;-83
2021/10/20 02:10:59;;;;;;;4.13;2.43;;;11.70;75.80;;;;;;5030981;28;20060;-83
2021/10/20 02:13:25;;;;;;;4.10;2.50;;;11.70;75.90;;;;;;5007078;28;20037;-83
2021/10/20 02:15:52;;;;;;;7.10;3.37;;;11.60;75.90;;;;;;5032496;28;20029;-83
2021/10/20 02:18:18;;;;;;;7.40;3.80;;;11.60;76.30;;;;;;5008125;28;20165;-83
2021/10/20 02:20:43;;;;;;;7.47;3.70;;;11.70;76.60;;;;;;5000600;28;20038;-83
2021/10/20 02:23:09;;;;;;;8.07;4.00;;;11.70;76.30;;;;;;5001107;28;20018;-83
2021/10/20 02:25:35;;;;;;;8.40;4.47;;;11.80;76.50;;;;;;5020529;28;20477;-83
2021/10/20 02:28:01;;;;;;;5.17;4.30;;;11.80;76.40;;;;;;5005016;28;20088;-82
2021/10/20 02:30:26;;;;;;;9.87;5.00;;;11.70;76.40;;;;;;5001525;28;20442;-83
2021/10/20 02:32:56;;;;;;;7.07;5.90;;;11.60;75.90;;;;;;5002933;28;20030;-83
2021/10/20 02:35:22;;;;;;;6.90;4.93;;;11.60;76.40;;;;;;5004838;28;20021;-82
2021/10/20 02:37:48;;;;;;;5.53;3.97;;;11.60;76.30;;;;;;5011587;28;20369;-83
2021/10/20 02:40:14;;;;;;;6.73;3.20;;;11.60;76.30;;;;;;5004953;28;20509;-83
2021/10/20 02:42:42;;;;;;;4.80;2.40;;;11.60;76.30;;;;;;5000749;28;20441;-83
2021/10/20 02:45:13;;;;;;;7.47;3.13;;;11.60;76.00;;;;;;4999439;28;20029;-82
2021/10/20 02:47:39;;;;;;;8.93;3.37;;;11.60;76.20;;;;;;5000111;28;20443;-82
2021/10/20 02:50:06;;;;;;;5.60;2.90;;;11.60;76.50;;;;;;4999677;28;20152;-82
2021/10/20 02:52:32;;;;;;;6.07;3.67;;;11.60;76.70;;;;;;5001257;28;20049;-82
2021/10/20 02:54:58;;;;;;;4.60;2.60;;;11.60;76.70;;;;;;5005547;28;20030;-83
2021/10/20 02:57:23;;;;;;;10.37;4.30;;;11.50;77.20;;;;;;5002944;28;20054;-83
2021/10/20 02:59:51;;;;;;;5.53;3.83;;;11.70;77.40;;;;;;5000041;28;20030;-83
2021/10/20 03:02:17;;;;;;;8.27;4.93;;;11.80;77.30;;;;;;5000654;28;20061;-83
2021/10/20 03:04:46;;;;;;;7.17;4.30;;;11.90;77.30;;;;;;5007947;28;20030;-83
2021/10/20 03:07:12;;;;;;;9.93;4.30;;;11.90;77.90;;;;;;5002024;28;20022;-82
2021/10/20 03:09:38;;;;;;;8.50;4.17;;;12.00;77.60;;;;;;5004918;28;20546;-82
2021/10/20 03:12:04;;;;;;;4.77;2.50;;;12.00;77.70;;;;;;5000959;28;20481;-83
2021/10/20 03:14:29;;;;;;;5.70;2.63;;;12.00;77.10;;;;;;5000708;28;20030;-82
2021/10/20 03:16:55;;;;;;;6.80;3.77;;;11.90;77.10;;;;;;5000545;28;20528;-82
2021/10/20 03:19:21;;;;;;;6.70;2.77;;;11.80;77.20;;;;;;4998092;28;20050;-83
2021/10/20 03:21:47;;;;;;;5.23;2.67;;;11.80;76.90;;;;;;5001860;28;20052;-82
2021/10/20 03:24:12;;;;;;;4.33;2.80;;;11.70;77.10;;;;;;4996722;28;20034;-82
2021/10/20 03:26:38;;;;;;;5.17;2.00;;;11.80;77.10;;;;;;5004360;28;20106;-83
2021/10/20 03:29:04;;;;;;;5.67;2.20;;;11.70;76.90;;;;;;5000172;28;20033;-83
2021/10/20 03:31:29;;;;;;;2.63;1.80;;;11.60;76.50;;;;;;4997414;28;20088;-83
2021/10/20 03:33:55;;;;;;;4.93;2.37;;;11.50;76.70;;;;;;4996185;28;20570;-83
2021/10/20 03:36:21;;;;;;;8.90;2.80;;;11.50;77.20;;;;;;4997698;28;20041;-83
2021/10/20 03:38:47;;;;;;;7.90;2.27;;;11.50;77.10;;;;;;4999522;28;20647;-83
2021/10/20 03:41:13;;;;;;;6.77;3.03;;;11.60;77.00;;;;;;5001543;28;20434;-83
2021/10/20 03:43:39;;;;;;;7.30;2.63;;;11.50;77.20;;;;;;4999533;28;20413;-83
2021/10/20 03:46:06;;;;;;;5.07;2.47;;;11.60;76.90;;;;;;4998387;28;20439;-83
2021/10/20 03:48:32;;;;;;;6.60;2.00;;;11.60;76.80;;;;;;5003812;28;20466;-83
2021/10/20 03:50:58;;;;;;;6.73;2.07;;;11.60;76.50;;;;;;5000582;28;20113;-83
2021/10/20 03:53:23;;;;;;;5.17;2.70;;;11.50;76.30;;;;;;5000968;28;20050;-82
2021/10/20 03:55:49;;;;;;;9.20;3.30;;;11.50;76.40;;;;;;5000921;28;20033;-82
2021/10/20 03:58:15;;;;;;;3.80;2.57;;;11.40;76.60;;;;;;5005559;28;20042;-82
2021/10/20 04:00:40;;;;;;;4.67;3.13;;;11.40;76.60;;;;;;5000119;28;20030;-83
2021/10/20 04:03:06;;;;;;;4.23;1.87;;;11.30;76.70;;;;;;5006646;28;20529;-83
2021/10/20 04:05:32;;;;;;;4.97;2.40;;;11.30;76.70;;;;;;4998323;28;20053;-82
2021/10/20 04:07:57;;;;;;;3.07;1.50;;;11.30;76.80;;;;;;5005104;28;20030;-82
2021/10/20 04:10:25;;;;;;;3.53;1.93;;;11.30;76.60;;;;;;5008977;28;20120;-83
2021/10/20 04:12:52;;;;;;;3.23;1.80;;;11.30;76.60;;;;;;4999153;28;20504;-83
2021/10/20 04:15:19;;;;;;;7.77;2.47;;;11.30;76.90;;;;;;5002941;28;20060;-83
2021/10/20 04:17:46;;;;;;;3.87;2.40;;;11.30;76.70;;;;;;5007818;28;20309;-82
2021/10/20 04:20:15;;;;;;;6.63;2.77;;;11.40;76.50;;;;;;4998552;28;20045;-83
2021/10/20 04:22:41;;;;;;;4.43;3.23;;;11.40;76.30;;;;;;5002756;28;20021;-83
2021/10/20 04:25:08;;;;;;;6.73;3.17;;;11.40;76.20;;;;;;5000840;28;20029;-82
2021/10/20 04:27:34;;;;;;;6.37;2.60;;;11.30;76.20;;;;;;5007865;28;20030;-82
2021/10/20 04:30:00;;;;;;;8.47;2.57;;;11.30;76.40;;;;;;5006747;28;20148;-82
2021/10/20 04:32:27;;;;;;;5.43;2.90;;;11.30;76.50;;;;;;5026622;28;20065;-83
2021/10/20 04:34:53;;;;;;;3.43;2.20;;;11.30;76.40;;;;;;5024623;28;20116;-83
2021/10/20 04:37:24;;;;;;;7.00;2.07;;;11.20;76.50;;;;;;5024026;28;20116;-83
2021/10/20 04:39:53;;;;;;;4.10;2.73;;;11.20;76.60;;;;;;5031458;28;20076;-83
2021/10/20 04:42:19;;;;;;;7.30;2.47;;;11.20;76.60;;;;;;5032175;28;20029;-82
2021/10/20 04:44:45;;;;;;;7.53;2.70;;;11.20;76.50;;;;;;5008664;28;20261;-83
2021/10/20 04:47:14;;;;;;;4.60;2.70;;;11.20;76.80;;;;;;5006806;28;20033;-82
2021/10/20 04:49:39;;;;;;;4.73;2.67;;;11.20;77.20;;;;;;5031570;28;20069;-82
2021/10/20 04:52:05;;;;;;;5.00;2.37;;;11.20;77.00;;;;;;5022382;28;20447;-82
2021/10/20 04:54:31;;;;;;;4.73;2.27;;;11.20;76.90;;;;;;5013660;28;20499;-82
2021/10/20 04:56:57;;;;;;;8.07;3.30;;;11.20;76.80;;;;;;5028107;28;20034;-82
2021/10/20 04:59:23;;;;;;;5.33;3.30;;;11.20;76.70;;;;;;5004708;28;20087;-83
2021/10/20 05:01:49;;;;;;;6.57;3.00;;;11.20;76.60;;;;;;5001846;28;20125;-83
2021/10/20 05:04:15;;;;;;;12.30;5.60;;;11.20;76.70;;;;;;5004314;28;20105;-82
2021/10/20 05:06:41;;;;;;;8.70;5.73;;;11.10;76.60;;;;;;5021318;28;20026;-83
2021/10/20 05:09:07;;;;;;;8.10;5.00;;;11.10;76.50;;;;;;5003247;28;20049;-82
2021/10/20 05:11:32;;;;;;;9.00;5.17;;;11.10;76.70;;;;;;5028115;28;20026;-83
2021/10/20 05:13:58;;;;;;;7.70;5.07;;;11.10;76.50;;;;;;5013320;28;20036;-82
2021/10/20 05:16:24;;;;;;;7.40;4.90;;;11.10;76.60;;;;;;5021058;28;20075;-83
2021/10/20 05:18:49;;;;;;;11.90;6.40;;;11.10;76.60;;;;;;4982347;28;1167118;-82
2021/10/20 05:21:15;;;;;;;8.63;5.90;;;11.10;76.80;;;;;;5015354;28;20064;-82
2021/10/20 05:23:41;;;;;;;8.97;5.13;;;11.10;76.90;;;;;;5032935;28;20413;-82
2021/10/20 05:26:06;;;;;;;8.03;5.50;;;11.10;76.90;;;;;;5015763;28;20033;-82
2021/10/20 05:28:32;;;;;;;9.43;5.33;;;11.10;76.60;;;;;;5033739;28;20025;-82
2021/10/20 05:30:58;;;;;;;12.17;5.50;;;11.00;76.60;;;;;;5007632;28;20084;-82
2021/10/20 05:33:24;;;;;;;7.97;4.57;;;11.00;76.70;;;;;;5019633;28;20025;-82
2021/10/20 05:35:49;;;;;;;7.47;4.37;;;11.10;76.60;;;;;;5006860;28;20366;-82
2021/10/20 05:38:15;;;;;;;9.10;4.07;;;11.10;76.60;;;;;;5031129;28;20045;-82
2021/10/20 05:40:41;;;;;;;7.40;3.43;;;11.10;76.60;;;;;;5013699;28;20030;-82
2021/10/20 05:43:07;;;;;;;8.87;4.73;;;11.20;77.10;;;;;;5020492;28;20034;-82
2021/10/20 05:45:32;;;;;;;9.93;4.90;;;11.30;77.00;;;;;;5013946;28;20476;-82
2021/10/20 05:47:58;;;;;;;10.57;5.40;;;11.30;77.00;;;;;;5015738;28;20547;-82
2021/10/20 05:50:24;;;;;;;11.97;5.30;;;11.30;77.00;;;;;;5011001;28;20033;-82
2021/10/20 05:52:50;;;;;;;12.87;4.60;;;11.20;77.00;;;;;;5005608;28;20083;-82
2021/10/20 05:55:16;;;;;;;10.27;5.00;;;11.20;77.30;;;;;;5014713;28;20033;-82
2021/10/20 05:57:41;;;;;;;7.87;3.50;;;11.20;77.20;;;;;;5010821;28;20034;-82
2021/10/20 06:00:10;;;;;;;7.73;4.50;;;11.20;77.30;;;;;;5005896;28;20396;-82
2021/10/20 06:02:36;;;;;;;8.80;5.00;;;11.20;77.80;;;;;;5027505;28;20034;-82
2021/10/20 06:05:03;;;;;;;9.80;4.90;;;11.40;77.80;;;;;;5020397;28;20563;-83
2021/10/20 06:07:29;;;;;;;9.00;5.40;;;11.30;77.30;;;;;;5010847;28;20539;-82
2021/10/20 06:09:54;;;;;;;8.83;5.17;;;11.40;77.60;;;;;;5006014;28;20042;-82
2021/10/20 06:12:21;;;;;;;7.23;3.67;;;11.40;77.40;;;;;;5014940;28;20144;-82
2021/10/20 06:14:48;;;;;;;10.03;3.67;;;11.30;77.30;;;;;;5030439;28;20076;-82
2021/10/20 06:17:14;;;;;;;7.50;3.73;;;11.30;77.30;;;;;;5012431;28;20086;-83
2021/10/20 06:19:40;;;;;;;5.77;3.67;;;11.30;78.20;;;;;;4997747;28;20038;-82
2021/10/20 06:22:06;;;;;;;10.17;3.30;;;11.30;77.40;;;;;;5002261;28;20034;-82
2021/10/20 06:24:31;;;;;;;7.67;3.93;;;11.30;77.30;;;;;;5005313;28;20124;-82
2021/10/20 06:26:58;;;;;;;5.30;3.33;;;11.30;77.20;;;;;;5013233;28;20373;-82
2021/10/20 06:29:26;;;;;;;6.63;3.80;;;11.30;77.20;;;;;;5006661;28;20052;-82
2021/10/20 06:31:52;;;;;;;7.50;3.80;;;11.30;77.50;;;;;;5002597;28;20361;-82
2021/10/20 06:34:18;;;;;;;8.10;4.33;;;11.30;77.40;;;;;;5005661;28;20051;-82
2021/10/20 06:36:43;;;;;;;12.23;5.60;;;11.40;77.50;;;;;;5029519;28;20109;-82
2021/10/20 06:39:09;;;;;;;8.93;5.03;;;11.40;77.20;;;;;;5031949;28;20068;-82
2021/10/20 06:41:35;;;;;;;8.20;5.13;;;11.40;77.10;;;;;;5030490;28;20453;-82
2021/10/20 06:44:01;;;;;;;12.23;6.23;;;11.40;77.30;;;;;;5013627;28;20029;-82
2021/10/20 06:46:26;;;;;;;10.70;5.53;;;11.40;77.80;;;;;;5030831;28;20059;-82
2021/10/20 06:48:52;;;;;;;8.87;5.47;;;11.50;77.30;;;;;;5003384;28;20488;-82
2021/10/20 06:51:18;;;;;;;8.00;5.53;;;11.50;77.30;;;;;;5013727;28;20033;-82
2021/10/20 06:53:44;;;;;;;6.50;4.33;;;11.50;77.40;;;;;;5007869;28;20061;-82
2021/10/20 06:56:10;;;;;;;8.27;3.87;;;11.50;77.50;;;;;;4994775;28;20076;-82
2021/10/20 06:58:36;;;;;;;5.77;3.43;;;11.60;77.70;;;;;;5011026;28;20040;-83
2021/10/20 07:01:02;;;;;;;10.83;3.70;;;11.80;77.80;;;;;;5024192;28;20033;-82
2021/10/20 07:03:28;;;;;;;6.80;3.73;;;11.90;77.00;;;;;;5010973;28;20148;-82
2021/10/20 07:05:54;;;;;;;7.07;3.73;;;12.00;77.20;;;;;;5006269;28;20415;-82
2021/10/20 07:08:20;;;;;;;8.43;4.70;;;12.00;76.90;;;;;;5026475;28;20092;-82
2021/10/20 07:10:46;;;;;;;7.27;3.70;;;12.10;77.00;;;;;;5006088;28;20048;-82
2021/10/20 07:13:12;;;;;;;9.57;3.83;;;12.00;76.90;;;;;;5013428;28;20404;-82
2021/10/20 07:15:37;;;;;;;6.87;4.20;;;12.10;77.30;;;;;;5028425;28;20041;-82
2021/10/20 07:18:03;;;;;;;9.00;3.90;;;12.10;76.80;;;;;;5029559;28;20046;-82
2021/10/20 07:20:29;;;;;;;7.20;3.57;;;12.10;77.10;;;;;;5013489;28;20030;-82
2021/10/20 07:22:55;;;;;;;4.73;3.60;;;12.10;77.10;;;;;;5012883;28;20064;-82
2021/10/20 07:25:21;;;;;;;14.23;4.23;;;12.10;77.40;;;;;;5012573;28;20022;-82
2021/10/20 07:27:47;;;;;;;10.13;4.23;;;12.10;77.60;;;;;;5030356;28;20029;-82
2021/10/20 07:30:14;;;;;;;6.33;4.07;;;12.10;77.50;;;;;;5004547;28;20081;-82
2021/10/20 07:32:41;;;;;;;6.40;3.80;;;12.00;77.50;;;;;;5013102;28;20091;-82
2021/10/20 07:35:14;;;;;;;7.87;4.47;;;12.00;77.70;;;;;;5011828;28;20087;-82
2021/10/20 07:37:41;;;;;;;12.03;4.43;;;12.10;77.70;;;;;;5011090;28;20041;-82
2021/10/20 07:40:10;;;;;;;8.07;4.23;;;12.10;77.80;;;;;;5011730;28;20026;-82
2021/10/20 07:42:37;;;;;;;5.10;3.70;;;12.20;77.90;;;;;;5028863;28;20034;-82
2021/10/20 07:45:08;;;;;;;5.60;3.33;;;12.20;77.90;;;;;;5030204;28;20034;-82
2021/10/20 07:47:35;;;;;;;6.40;3.00;;;12.30;77.80;;;;;;4995236;28;20131;-82
2021/10/20 07:50:00;;;;;;;6.63;3.37;;;12.30;77.70;;;;;;5012112;28;20080;-82
2021/10/20 07:52:28;;;;;;;5.87;3.27;;;12.30;77.90;;;;;;5006025;28;20037;-82
2021/10/20 07:54:54;;;;;;;8.20;3.63;;;12.40;77.70;;;;;;5026331;28;20033;-82
2021/10/20 07:57:20;;;;;;;5.97;2.77;;;12.40;77.60;;;;;;5004553;28;20049;-82
2021/10/20 07:59:46;;;;;;;5.50;3.00;;;12.40;77.70;;;;;;5028928;28;20034;-82
2021/10/20 08:02:13;;;;;;;7.77;3.43;;;12.40;77.60;;;;;;5027103;28;20036;-82
2021/10/20 08:04:39;;;;;;;5.90;2.90;;;12.50;77.50;;;;;;5014225;28;20029;-82
2021/10/20 08:07:05;;;;;;;8.00;3.30;;;12.50;77.50;;;;;;5010392;28;20029;-82
2021/10/20 08:09:31;;;;;;;5.00;2.63;;;13.00;76.60;;;;;;5010584;28;20362;-81
2021/10/20 08:11:56;;;;;;;4.20;2.60;;;15.80;68.80;;;;;;5026327;28;20060;-81
2021/10/20 08:14:22;;;;;;;9.57;2.95;;;17.50;62.90;;;;;;5019078;28;20487;-81
2021/10/20 08:16:48;;;;;;;6.60;2.90;;;17.10;63.30;;;;;;5006463;28;20022;-81
2021/10/20 08:19:14;;;;;;;4.13;2.42;;;16.20;65.70;;;;;;4999634;28;20132;-82
2021/10/20 08:21:40;;;;;;;6.00;2.75;;;16.00;67.20;;;;;;5003710;28;20038;-81
2021/10/20 08:24:05;;;;;;;8.70;2.70;;;16.90;65.60;;;;;;5009378;28;20037;-81
2021/10/20 08:26:31;;;;;;;5.32;3.08;;;17.60;64.00;;;;;;5000225;28;20037;-81
2021/10/20 08:28:57;;;;;;;5.32;2.83;;;17.90;63.40;;;;;;4999569;28;20113;-81
2021/10/20 08:31:22;;;;;;;5.80;2.83;;;17.90;63.50;;;;;;5000007;28;20036;-82
2021/10/20 08:33:48;;;;;;;5.55;2.67;;;17.70;63.50;;;;;;5003049;28;20107;-82
2021/10/20 08:36:14;;;;;;;4.20;3.08;;;17.30;64.10;;;;;;5002525;28;20033;-81
2021/10/20 08:38:40;;;;;;;10.43;2.85;;;16.90;64.70;;;;;;5001929;28;20493;-82
2021/10/20 08:41:08;;;;;;;5.80;2.50;;;16.60;65.50;;;;;;4999715;28;20038;-81
2021/10/20 08:43:34;;;;;;;6.75;3.03;;;16.60;66.40;;;;;;5019579;28;20791;-82
2021/10/20 08:46:01;;;;;;;6.32;2.42;;;16.60;66.30;;;;;;5000840;28;20026;-82
2021/10/20 08:48:29;;;;;;;4.93;3.22;;;16.50;65.70;;;;;;5000207;28;20120;-82
2021/10/20 08:51:02;;;;;;;5.65;2.53;;;16.40;66.00;;;;;;4997792;28;20283;-86
2021/10/20 08:53:28;;;;;;;6.57;2.65;;;16.20;66.20;;;;;;4996802;28;20026;-86
2021/10/20 08:55:54;;;;;;;6.97;2.67;;;16.40;66.30;;;;;;5003075;28;20029;-86
2021/10/20 08:58:21;;;;;;;5.03;2.20;;;16.50;66.20;;;;;;5005621;28;20384;-87
2021/10/20 09:00:46;;;;;;;4.82;2.50;;;16.70;65.70;;;;;;5003143;28;20444;-87
2021/10/20 09:03:12;;;;;;;3.50;2.13;;;17.10;65.20;;;;;;5000321;28;20022;-85
2021/10/20 09:05:38;;;;;;;4.65;2.22;;;17.50;64.20;;;;;;5005789;28;20080;-85
2021/10/20 09:08:05;;;;;;;4.05;2.05;;;17.90;63.40;;;;;;5011006;28;20022;-85
2021/10/20 09:10:31;;;;;;;4.13;1.88;;;18.40;62.10;;;;;;5003047;28;20030;-85
2021/10/20 09:12:59;;;;;;;6.13;2.28;;;18.90;61.10;;;;;;4992336;28;20030;-85
2021/10/20 09:15:27;;;;;;;6.30;3.15;;;19.20;60.50;;;;;;5000441;28;20511;-85
2021/10/20 09:17:58;;;;;;;5.18;2.40;;;19.40;60.60;;;;;;4999253;28;20046;-85
2021/10/20 09:20:31;;;;;;;3.20;2.00;;;19.60;60.30;;;;;;5010508;28;20083;-85
2021/10/20 09:23:07;;;;;;;4.70;2.90;;;19.90;60.20;;;;;;5014866;28;20068;-86
2021/10/20 09:25:37;;;;;;;2.92;2.10;;;20.30;59.10;;;;;;5014162;28;20590;-86
2021/10/20 09:28:06;;;;;;;3.00;2.50;;;20.60;58.70;;;;;;5029051;28;20480;-86
2021/10/20 09:30:32;;;;;;;4.22;2.88;;;20.70;58.00;;;;;;5013063;28;20029;-86
2021/10/20 09:32:59;;;;;;;6.43;2.95;;;21.00;57.20;;;;;;5030221;28;20438;-86
2021/10/20 09:35:28;;;;;;;4.03;2.17;;;21.10;56.40;;;;;;5013622;28;20032;-86
2021/10/20 09:37:59;;;;;;;3.88;2.17;;;21.10;55.70;;;;;;5009982;28;20029;-86
2021/10/20 09:40:26;;;;;;;3.85;1.90;;;21.20;55.30;;;;;;5007772;28;20089;-85
2021/10/20 09:42:54;;;;;;;5.20;2.40;;;21.20;54.70;;;;;;5027788;28;20043;-85
2021/10/20 09:45:21;;;;;;;2.85;2.25;;;21.30;54.40;;;;;;5024664;28;20389;-86
2021/10/20 09:47:47;;;;;;;6.53;2.65;;;21.20;54.30;;;;;;5004278;28;20424;-85
2021/10/20 09:50:14;;;;;;;6.88;2.50;;;20.90;55.00;;;;;;5010192;28;20094;-85
2021/10/20 09:52:51;;;;;;;4.32;1.90;;;20.80;54.90;;;;;;5025862;28;20108;-84
2021/10/20 09:55:28;;;;;;;4.25;2.15;;;20.70;54.80;;;;;;5009037;28;20026;-86
2021/10/20 09:58:02;;;;;;;5.70;1.95;;;20.60;54.70;;;;;;5012574;28;20120;-86
2021/10/20 10:00:28;;;;;;;8.40;3.03;;;20.30;54.80;;;;;;5009272;28;20148;-86
2021/10/20 10:02:57;;;;;;;5.70;3.35;;;20.10;55.20;;;;;;5003620;28;20030;-86
2021/10/20 10:05:23;;;;;;;5.82;2.90;;;20.00;55.50;;;;;;5028352;28;20029;-85
2021/10/20 10:07:49;;;;;;;5.65;2.92;;;20.00;56.10;;;;;;5014602;28;20117;-87
2021/10/20 10:10:15;;;;;;;9.32;3.78;;;19.80;56.10;;;;;;5008090;28;20175;-86
2021/10/20 10:12:43;;;;;;;5.80;2.55;;;19.80;56.10;;;;;;5029906;28;20030;-87
2021/10/20 10:15:16;;;;;;;4.30;2.08;;;19.80;56.10;;;;;;5010458;28;20025;-86
2021/10/20 10:17:43;;;;;;;4.28;1.55;;;19.80;56.30;;;;;;5001958;28;20053;-86
2021/10/20 10:20:11;;;;;;;4.93;2.40;;;19.90;56.20;;;;;;5008545;28;20387;-87
2021/10/20 10:22:55;;;;;;;6.22;1.98;;;19.90;56.20;;;;;;5031204;28;20093;-86
2021/10/20 10:25:41;;;;;;;3.05;1.77;;;20.00;56.10;;;;;;5023989;28;20022;-86
2021/10/20 10:28:07;;;;;;;5.50;1.70;;;20.00;56.10;;;;;;5005980;28;20025;-86
2021/10/20 10:30:49;;;;;;;5.53;2.00;;;19.90;56.20;;;;;;5014695;28;20040;-86
2021/10/20 10:33:27;;;;;;;4.35;2.33;;;19.90;56.30;;;;;;5009074;28;20369;-86
2021/10/20 10:36:18;;;;;;;10.27;2.60;;;19.90;56.60;;;;;;5000666;28;20409;-85
2021/10/20 10:38:57;;;;;;;3.55;2.15;;;19.90;56.70;;;;;;5013213;28;20388;-85
2021/10/20 10:41:35;;;;;;;6.05;2.08;;;19.90;56.70;;;;;;5002550;28;20242;-85
2021/10/20 10:44:04;;;;;;;4.97;3.17;;;20.00;56.80;;;;;;5026399;28;20022;-84
2021/10/20 10:46:59;;;;;;;5.57;2.45;;;20.00;56.50;;;;;;5006108;28;20028;-85
2021/10/20 10:49:35;;;;;;;5.32;2.10;;;20.00;56.20;;;;;;4997248;28;20518;-84
2021/10/20 10:52:21;;;;;;;4.97;2.10;;;20.10;56.40;;;;;;5023552;28;20022;-85
2021/10/20 10:55:14;;;;;;;4.20;2.42;;;20.20;56.10;;;;;;5004602;28;20029;-85
2021/10/20 10:57:56;;;;;;;;;;;20.10;55.90;;;;;;5029151;28;20030;-85
2021/10/20 11:00:22;;;;;;;5.75;2.60;;;20.10;56.30;;;;;;5025796;28;19994;-85
2021/10/20 11:02:51;;;;;;;5.20;2.30;;;20.20;56.20;;;;;;5006220;28;20489;-85
2021/10/20 11:05:31;;;;;;;5.45;2.30;;;20.20;55.90;;;;;;4999674;28;20022;-87
2021/10/20 11:08:03;;;;;;;9.43;3.38;;;20.30;55.80;;;;;;5006196;28;20147;-87
2021/10/20 11:10:31;;;;;;;6.38;3.92;;;20.40;56.10;;;;;;5023653;28;20374;-86
2021/10/20 11:12:59;;;;;;;6.63;3.70;;;20.40;56.00;;;;;;5032274;28;20038;-85
2021/10/20 11:15:26;;;;;;;10.18;3.38;;;20.30;56.00;;;;;;5014190;28;20033;-85
2021/10/20 11:17:52;;;;;;;9.93;2.90;;;20.50;56.20;;;;;;5016295;28;20043;-85
2021/10/20 11:20:21;;;;;;;3.47;2.65;;;20.60;56.00;;;;;;5013169;28;20072;-85
2021/10/20 11:22:52;;;;;;;4.20;2.55;;;20.70;55.70;;;;;;5017006;28;20397;-85
2021/10/20 11:25:19;;;;;;;7.83;2.80;;;20.80;55.30;;;;;;5015185;28;20052;-85
2021/10/20 11:27:47;;;;;;;4.53;2.83;;;20.90;55.20;;;;;;5001376;28;20314;-84
2021/10/20 11:30:13;;;;;;;6.28;2.67;;;21.00;55.00;;;;;;5015385;28;20105;-85
2021/10/20 11:32:42;;;;;;;3.65;2.30;;;21.10;55.20;;;;;;5015680;28;20434;-85
2021/10/20 11:35:23;;;;;;;3.47;2.28;;;21.10;54.90;;;;;;5015604;28;20025;-87
2021/10/20 11:38:02;;;;;;;5.68;2.10;;;21.20;54.70;;;;;;5016690;28;20056;-85
2021/10/20 11:40:56;;;;;;;5.72;2.10;;;21.20;54.80;;;;;;5016339;28;20032;-86
2021/10/20 11:43:26;;;;;;;9.57;2.42;;;21.30;54.40;;;;;;5008745;28;20030;-86
2021/10/20 11:45:52;;;;;;;2.75;2.05;;;21.30;53.90;;;;;;5005824;28;20030;-85
2021/10/20 11:48:24;;;;;;;8.18;2.47;;;21.30;54.20;;;;;;5015090;28;20029;-86
2021/10/20 11:50:55;;;;;;;4.45;2.20;;;21.30;54.20;;;;;;5033129;28;20017;-85
2021/10/20 11:53:21;;;;;;;30.03;17.17;;;21.30;53.90;;;;;;5006347;28;20034;-85
2021/10/20 11:55:49;;;;;;;12.45;6.15;;;21.30;54.30;;;;;;5007732;28;20311;-84
2021/10/20 11:58:24;;;;;;;9.35;4.68;;;21.30;54.40;;;;;;5014871;28;20053;-84
2021/10/20 12:00:57;;;;;;;10.18;3.88;;;21.50;54.20;;;;;;5015504;28;20427;-85
2021/10/20 12:03:41;;;;;;;5.25;3.00;;;21.50;53.90;;;;;;5015455;28;20484;-85
2021/10/20 12:06:10;;;;;;;6.50;3.80;;;21.60;53.80;;;;;;5028347;28;20036;-84
2021/10/20 12:08:43;;;;;;;8.07;3.35;;;21.60;53.70;;;;;;5030194;28;20025;-83
2021/10/20 12:11:09;;;;;;;8.32;3.10;;;21.70;53.60;;;;;;5013583;28;20083;-85
2021/10/20 12:13:36;;;;;;;8.75;3.25;;;21.80;53.40;;;;;;5001343;28;20041;-84
2021/10/20 12:16:03;;;;;;;5.68;2.10;;;21.80;53.00;;;;;;5000639;28;20033;-84
2021/10/20 12:18:30;;;;;;;7.30;3.20;;;21.90;52.70;;;;;;5002922;28;20515;-83
2021/10/20 12:20:58;;;;;;;9.98;2.13;;;21.90;52.70;;;;;;5000920;28;20075;-84
2021/10/20 12:23:33;;;;;;;7.55;2.65;;;21.90;52.50;;;;;;5014572;28;20029;-83
2021/10/20 12:26:02;;;;;;;4.30;2.50;;;21.90;52.30;;;;;;5027216;28;20372;-84
2021/10/20 12:28:29;;;;;;;3.35;2.05;;;21.90;52.40;;;;;;5009020;28;20025;-83
2021/10/20 12:30:55;;;;;;;4.00;2.25;;;22.00;52.20;;;;;;5005640;28;20025;-84
2021/10/20 12:33:22;;;;;;;4.65;2.15;;;22.00;51.50;;;;;;5001867;28;20040;-83
2021/10/20 12:35:50;;;;;;;2.10;1.40;;;22.00;51.60;;;;;;5004674;28;20037;-83
2021/10/20 12:38:16;;;;;;;2.83;2.00;;;22.00;51.90;;;;;;5005149;28;20030;-84
2021/10/20 12:40:45;;;;;;;3.08;1.65;;;22.00;51.60;;;;;;5022280;28;20090;-83
2021/10/20 12:43:15;;;;;;;2.00;1.40;;;21.90;51.10;;;;;;4997152;28;20021;-81
2021/10/20 12:45:42;;;;;;;2.72;1.70;;;21.90;51.10;;;;;;5001382;28;20025;-82
2021/10/20 12:48:09;;;;;;;8.10;1.80;;;21.80;51.10;;;;;;5008724;28;20040;-82